createdAt,value
2022-11-14T00:02:12.484Z,8.00
2022-11-14T00:05:19.098Z,7.55
2022-11-14T00:08:19.776Z,7.68
2022-11-14T00:11:26.059Z,6.85
2022-11-14T00:14:28.739Z,8.68
2022-11-14T00:17:35.037Z,7.78
2022-11-14T00:20:41.208Z,8.23
2022-11-14T00:23:46.716Z,8.27
2022-11-14T00:26:34.888Z,8.43
2022-11-14T00:29:21.914Z,8.32
2022-11-14T00:32:08.933Z,8.52
2022-11-14T00:34:55.931Z,8.13
2022-11-14T00:38:02.104Z,7.75
2022-11-14T00:41:03.374Z,8.35
2022-11-14T00:44:09.494Z,7.55
2022-11-14T00:47:15.633Z,7.93
2022-11-14T00:50:02.916Z,7.45
2022-11-14T00:52:49.463Z,8.00
2022-11-14T00:55:36.644Z,7.68
2022-11-14T00:58:23.970Z,7.72
2022-11-14T01:01:12.179Z,6.40
2022-11-14T01:04:18.166Z,8.00
2022-11-14T01:07:24.242Z,8.38
2022-11-14T01:10:30.406Z,6.70
2022-11-14T01:13:18.989Z,7.43
2022-11-14T01:16:05.884Z,6.93
2022-11-14T01:18:53.269Z,7.55
2022-11-14T01:21:40.343Z,7.85
2022-11-14T01:24:27.877Z,7.00
2022-11-14T01:27:15.215Z,8.15
2022-11-14T01:30:02.337Z,7.82
2022-11-14T01:33:00.769Z,7.20
2022-11-14T01:36:01.784Z,7.78
2022-11-14T01:38:54.686Z,7.63
2022-11-14T01:41:50.725Z,8.00
2022-11-14T01:44:56.679Z,7.82
2022-11-14T01:47:47.334Z,8.57
2022-11-14T01:50:34.955Z,8.60
2022-11-14T01:53:21.892Z,8.05
2022-11-14T01:56:09.816Z,7.05
2022-11-14T01:59:03.388Z,7.78
2022-11-14T02:01:52.225Z,7.72
2022-11-14T02:04:40.714Z,7.90
2022-11-14T02:07:30.090Z,8.57
2022-11-14T02:10:32.257Z,7.22
2022-11-14T02:13:38.206Z,8.15
2022-11-14T02:16:55.706Z,7.07
2022-11-14T02:20:10.732Z,7.70
2022-11-14T02:22:57.624Z,7.07
2022-11-14T02:25:44.334Z,7.15
2022-11-14T02:28:32.375Z,7.40
2022-11-14T02:31:20.089Z,7.55
2022-11-14T02:34:21.030Z,7.32
2022-11-14T02:37:23.370Z,6.80
2022-11-14T02:40:29.607Z,7.38
2022-11-14T02:43:33.445Z,8.33
2022-11-14T02:46:35.160Z,7.20
2022-11-14T02:49:41.408Z,8.30
2022-11-14T02:52:47.780Z,6.93
2022-11-14T02:58:57.745Z,7.40
2022-11-14T03:02:04.003Z,7.63
2022-11-14T03:05:09.240Z,6.45
2022-11-14T03:08:15.211Z,7.68
2022-11-14T03:11:06.293Z,7.03
2022-11-14T03:13:53.006Z,8.02
2022-11-14T03:16:40.213Z,7.15
2022-11-14T03:19:27.193Z,8.10
2022-11-14T03:22:14.588Z,6.55
2022-11-14T03:25:02.529Z,6.20
2022-11-14T03:27:49.918Z,7.45
2022-11-14T03:30:36.584Z,6.18
2022-11-14T03:33:42.841Z,7.22
2022-11-14T03:36:44.753Z,7.10
2022-11-14T03:39:50.760Z,6.25
2022-11-14T03:42:58.208Z,6.93
2022-11-14T03:46:04.484Z,7.10
2022-11-14T03:49:10.379Z,6.93
2022-11-14T03:52:16.453Z,6.72
2022-11-14T03:55:15.032Z,5.68
2022-11-14T03:58:02.327Z,5.55
2022-11-14T04:01:08.610Z,5.93
2022-11-14T04:04:14.932Z,6.85
2022-11-14T04:07:21.284Z,6.40
2022-11-14T04:10:08.533Z,6.43
2022-11-14T04:12:55.511Z,6.28
2022-11-14T04:15:42.487Z,5.47
2022-11-14T04:18:30.049Z,6.20
2022-11-14T04:21:17.448Z,5.80
2022-11-14T04:24:08.477Z,5.95
2022-11-14T04:26:58.126Z,6.13
2022-11-14T04:29:45.024Z,5.22
2022-11-14T04:32:51.560Z,4.72
2022-11-14T04:35:57.805Z,5.35
2022-11-14T04:39:04.820Z,5.20
2022-11-14T04:42:10.987Z,4.60
2022-11-14T04:45:17.302Z,4.82
2022-11-14T04:48:19.551Z,4.63
2022-11-14T04:51:21.538Z,4.63
2022-11-14T04:54:26.313Z,4.40
2022-11-14T04:57:32.707Z,4.55
2022-11-14T05:00:19.818Z,5.10
2022-11-14T05:03:22.060Z,4.53
2022-11-14T05:06:09.290Z,4.20
2022-11-14T05:09:11.984Z,5.10
2022-11-14T05:12:13.844Z,4.85
2022-11-14T05:15:19.989Z,5.88
2022-11-14T05:18:20.859Z,4.80
2022-11-14T05:21:26.961Z,5.18
2022-11-14T05:24:31.301Z,5.10
2022-11-14T05:27:25.041Z,5.25
2022-11-14T05:30:31.159Z,5.00
2022-11-14T05:33:24.800Z,5.22
2022-11-14T05:36:13.511Z,5.00
2022-11-14T05:39:00.531Z,6.13
2022-11-14T05:41:47.919Z,5.35
2022-11-14T05:44:36.757Z,4.95
2022-11-14T05:47:33.737Z,5.15
2022-11-14T05:50:36.542Z,5.95
2022-11-14T05:53:38.361Z,5.57
2022-11-14T05:56:25.266Z,4.88
2022-11-14T05:59:12.401Z,5.22
2022-11-14T06:01:59.706Z,6.25
2022-11-14T06:04:46.554Z,5.35
2022-11-14T06:07:56.363Z,6.32
2022-11-14T06:11:04.406Z,6.07
2022-11-14T06:14:11.268Z,6.50
2022-11-14T06:17:12.015Z,6.28
2022-11-14T06:20:16.177Z,7.07
2022-11-14T06:23:24.450Z,6.10
2022-11-14T06:26:24.851Z,6.43
2022-11-14T06:29:30.202Z,6.80
2022-11-14T06:32:21.682Z,6.10
2022-11-14T06:35:09.347Z,7.07
2022-11-14T06:37:56.237Z,6.70
2022-11-14T06:40:42.988Z,6.78
2022-11-14T06:43:33.073Z,7.05
2022-11-14T06:46:23.809Z,6.45
2022-11-14T06:49:30.220Z,6.82
2022-11-14T06:52:36.546Z,6.90
2022-11-14T06:55:25.616Z,6.85
2022-11-14T06:58:13.459Z,7.30
2022-11-14T07:01:04.563Z,6.82
2022-11-14T07:03:53.004Z,7.22
2022-11-14T07:06:54.676Z,6.60
2022-11-14T07:09:59.535Z,7.57
2022-11-14T07:13:05.544Z,6.72
2022-11-14T07:15:56.250Z,8.23
2022-11-14T07:18:57.958Z,7.70
2022-11-14T07:22:01.584Z,8.07
2022-11-14T07:25:07.880Z,7.93
2022-11-14T07:28:11.300Z,7.97
2022-11-14T07:31:18.746Z,8.10
2022-11-14T07:34:13.877Z,8.93
2022-11-14T07:37:19.869Z,8.48
2022-11-14T07:40:20.464Z,8.23
2022-11-14T07:43:26.944Z,7.60
2022-11-14T07:46:33.090Z,8.52
2022-11-14T07:49:36.484Z,9.73
2022-11-14T07:52:42.351Z,9.10
2022-11-14T07:55:30.433Z,9.38
2022-11-14T07:58:17.473Z,8.70
2022-11-14T08:01:05.863Z,8.80
2022-11-14T08:03:57.991Z,9.07
2022-11-14T08:07:04.058Z,9.30
2022-11-14T08:10:11.359Z,8.57
2022-11-14T08:16:40.433Z,12.05
2022-11-14T08:19:40.991Z,11.88
2022-11-14T08:22:47.503Z,10.45
2022-11-14T08:25:49.231Z,9.85
2022-11-14T08:28:54.082Z,11.40
2022-11-14T08:31:55.739Z,10.63
2022-11-14T08:35:04.903Z,12.18
2022-11-14T08:38:10.893Z,13.10
2022-11-14T08:41:07.808Z,12.27
2022-11-14T08:44:07.955Z,12.93
2022-11-14T08:47:13.075Z,15.15
2022-11-14T08:50:13.901Z,13.48
2022-11-14T08:53:17.453Z,12.88
2022-11-14T08:56:04.566Z,13.50
2022-11-14T08:59:10.958Z,13.27
2022-11-14T09:02:13.710Z,14.43
2022-11-14T09:05:18.932Z,13.02
2022-11-14T09:08:07.708Z,14.27
2022-11-14T09:10:54.578Z,13.65
2022-11-14T09:13:41.709Z,14.57
2022-11-14T09:16:28.543Z,13.65
2022-11-14T09:19:26.935Z,13.88
2022-11-14T09:22:33.122Z,15.63
2022-11-14T09:25:34.407Z,13.93
2022-11-14T09:28:35.906Z,18.92
2022-11-14T09:31:33.008Z,19.33
2022-11-14T09:34:43.464Z,15.80
2022-11-14T09:37:49.904Z,14.68
2022-11-14T09:40:57.352Z,15.00
2022-11-14T09:44:04.195Z,15.93
2022-11-14T09:47:04.120Z,15.75
2022-11-14T09:49:54.562Z,15.07
2022-11-14T09:53:04.509Z,16.63
2022-11-14T09:55:52.069Z,15.00
2022-11-14T09:58:48.718Z,13.88
2022-11-14T10:02:13.254Z,14.27
2022-11-14T10:05:23.667Z,13.20
2022-11-14T10:08:25.712Z,13.07
2022-11-14T10:11:18.069Z,11.40
2022-11-14T10:14:28.671Z,13.00
2022-11-14T10:17:34.977Z,11.35
2022-11-14T10:20:23.543Z,13.10
2022-11-14T10:23:19.039Z,12.23
2022-11-14T10:26:19.640Z,12.60
2022-11-14T10:29:18.609Z,11.52
2022-11-14T10:32:15.583Z,10.98
2022-11-14T10:35:09.881Z,12.40
2022-11-14T10:38:03.263Z,13.38
2022-11-14T10:40:58.752Z,9.63
2022-11-14T10:43:58.329Z,10.85
2022-11-14T10:46:56.648Z,9.57
2022-11-14T10:49:46.473Z,10.60
2022-11-14T10:52:54.568Z,9.20
2022-11-14T10:56:03.232Z,8.07
2022-11-14T10:58:50.101Z,7.88
2022-11-14T11:01:44.779Z,8.60
2022-11-14T11:04:36.640Z,8.32
2022-11-14T11:07:42.885Z,8.57
2022-11-14T11:10:48.761Z,8.35
2022-11-14T11:13:37.157Z,8.23
2022-11-14T11:16:24.996Z,7.95
2022-11-14T11:19:27.503Z,8.30
2022-11-14T11:22:33.324Z,8.85
2022-11-14T11:25:27.842Z,8.27
2022-11-14T11:28:14.947Z,8.02
2022-11-14T11:31:07.962Z,7.78
2022-11-14T11:34:04.342Z,8.05
2022-11-14T11:37:10.105Z,10.65
2022-11-14T11:40:07.935Z,10.48
2022-11-14T11:43:38.033Z,7.93
2022-11-14T11:46:45.903Z,9.35
2022-11-14T11:49:52.978Z,9.57
2022-11-14T11:52:59.598Z,9.73
2022-11-14T11:56:10.730Z,10.90
2022-11-14T11:59:29.435Z,10.07
2022-11-14T12:02:31.810Z,8.23
2022-11-14T12:05:38.341Z,10.23
2022-11-14T12:08:45.735Z,11.63
2022-11-14T12:11:34.790Z,9.73
2022-11-14T12:14:24.418Z,11.48
2022-11-14T12:17:46.654Z,10.85
2022-11-14T12:20:47.324Z,11.77
2022-11-14T12:24:02.770Z,11.52
2022-11-14T12:27:01.939Z,9.65
2022-11-14T12:30:07.532Z,10.50
2022-11-14T12:32:57.426Z,7.55
2022-11-14T12:35:53.238Z,9.82
2022-11-14T12:38:45.416Z,9.02
2022-11-14T12:41:37.952Z,9.48
2022-11-14T12:44:30.921Z,9.77
2022-11-14T12:47:23.271Z,9.48
2022-11-14T12:50:35.076Z,8.68
2022-11-14T12:53:48.079Z,8.18
2022-11-14T12:56:34.821Z,8.30
2022-11-14T12:59:36.324Z,9.57
2022-11-14T13:02:45.915Z,8.80
2022-11-14T13:05:55.275Z,9.02
2022-11-14T13:08:45.733Z,9.40
2022-11-14T13:11:52.676Z,8.93
2022-11-14T13:15:10.367Z,9.18
2022-11-14T13:18:32.130Z,9.60
2022-11-14T13:21:47.931Z,8.18
2022-11-14T13:25:01.162Z,7.93
2022-11-14T13:28:07.160Z,9.05
2022-11-14T13:31:07.290Z,9.18
2022-11-14T13:34:00.384Z,14.85
2022-11-14T13:36:59.148Z,10.50
2022-11-14T13:39:55.620Z,9.73
2022-11-14T13:43:02.599Z,10.40
2022-11-14T13:45:52.002Z,9.80
2022-11-14T13:49:01.936Z,9.70
2022-11-14T13:51:49.075Z,11.27
2022-11-14T13:54:36.001Z,11.05
2022-11-14T13:57:22.878Z,11.18
2022-11-14T14:00:20.371Z,11.38
2022-11-14T14:03:12.799Z,9.93
2022-11-14T14:06:11.635Z,11.50
2022-11-14T14:09:24.475Z,11.35
2022-11-14T14:12:30.372Z,11.95
2022-11-14T14:15:31.523Z,14.25
2022-11-14T14:18:19.099Z,12.30
2022-11-14T14:21:10.823Z,11.73
2022-11-14T14:24:06.832Z,10.40
2022-11-14T14:27:16.122Z,11.18
2022-11-14T14:30:11.054Z,10.82
2022-11-14T14:33:10.092Z,11.57
2022-11-14T14:36:05.674Z,11.07
2022-11-14T14:39:17.026Z,11.20
2022-11-14T14:42:18.937Z,10.55
2022-11-14T14:45:17.687Z,10.93
2022-11-14T14:48:07.758Z,10.48
2022-11-14T14:50:56.953Z,11.10
2022-11-14T14:53:52.515Z,10.15
2022-11-14T14:57:15.466Z,10.88
2022-11-14T15:00:20.318Z,11.23
2022-11-14T15:03:22.697Z,10.43
2022-11-14T15:06:40.470Z,12.23
2022-11-14T15:09:38.974Z,11.88
2022-11-14T15:12:46.115Z,9.95
2022-11-14T15:15:52.622Z,10.35
2022-11-14T15:19:00.367Z,11.75
2022-11-14T15:22:24.864Z,12.27
2022-11-14T15:25:20.330Z,11.20
2022-11-14T15:28:20.736Z,12.77
2022-11-14T15:31:24.151Z,12.27
2022-11-14T15:34:30.748Z,13.63
2022-11-14T15:37:23.122Z,12.80
2022-11-14T15:40:19.698Z,11.93
2022-11-14T15:43:28.746Z,12.50
2022-11-14T15:46:38.707Z,13.02
2022-11-14T15:49:28.084Z,12.00
2022-11-14T15:52:22.897Z,13.45
2022-11-14T15:55:15.965Z,13.13
2022-11-14T15:58:27.007Z,10.05
2022-11-14T16:01:16.585Z,11.25
2022-11-14T16:04:03.725Z,12.20
2022-11-14T16:06:50.938Z,11.40
2022-11-14T16:09:55.027Z,12.20
2022-11-14T16:13:04.145Z,12.82
2022-11-14T16:16:00.012Z,12.30
2022-11-14T16:19:03.457Z,13.18
2022-11-14T16:22:12.484Z,12.43
2022-11-14T16:25:03.127Z,11.82
2022-11-14T16:27:51.175Z,13.73
2022-11-14T16:30:40.700Z,13.20
2022-11-14T16:33:36.917Z,17.67
2022-11-14T16:36:42.882Z,15.18
2022-11-14T16:39:42.261Z,14.00
2022-11-14T16:42:46.378Z,14.55
2022-11-14T16:45:50.043Z,13.73
2022-11-14T16:48:49.164Z,13.70
2022-11-14T16:51:49.140Z,13.93
2022-11-14T16:54:47.859Z,13.07
2022-11-14T16:57:54.743Z,14.90
2022-11-14T17:00:44.963Z,13.55
2022-11-14T17:03:41.728Z,13.85
2022-11-14T17:06:29.910Z,15.57
2022-11-14T17:09:29.045Z,13.43
2022-11-14T17:12:38.622Z,13.23
2022-11-14T17:15:44.866Z,13.77
2022-11-14T17:18:44.286Z,13.02
2022-11-14T17:21:36.726Z,13.57
2022-11-14T17:24:28.561Z,13.50
2022-11-14T17:27:18.805Z,12.93
2022-11-14T17:30:06.962Z,12.43
2022-11-14T17:33:13.456Z,11.90
2022-11-14T17:36:08.426Z,13.75
2022-11-14T17:38:55.348Z,13.43
2022-11-14T17:41:59.230Z,15.05
2022-11-14T17:44:46.402Z,12.57
2022-11-14T17:47:38.205Z,13.13
2022-11-14T17:50:25.784Z,12.65
2022-11-14T17:53:13.215Z,11.95
2022-11-14T17:56:01.939Z,14.10
2022-11-14T17:58:54.853Z,12.98
2022-11-14T18:01:54.480Z,12.35
2022-11-14T18:05:02.542Z,11.80
2022-11-14T18:07:50.139Z,13.32
2022-11-14T18:10:37.696Z,12.80
2022-11-14T18:13:24.841Z,12.52
2022-11-14T18:16:17.039Z,12.35
2022-11-14T18:19:08.454Z,12.30
2022-11-14T18:22:00.784Z,12.50
2022-11-14T18:24:48.691Z,11.60
2022-11-14T18:27:40.638Z,11.30
2022-11-14T18:30:42.023Z,11.10
2022-11-14T18:33:45.144Z,10.75
2022-11-14T18:36:56.627Z,10.43
2022-11-14T18:40:16.646Z,12.07
2022-11-14T18:43:29.915Z,14.13
2022-11-14T18:46:37.804Z,14.20
2022-11-14T18:49:46.693Z,13.00
2022-11-14T18:53:02.820Z,11.23
2022-11-14T18:55:53.229Z,11.43
2022-11-14T18:58:43.617Z,10.40
2022-11-14T19:01:35.355Z,12.15
2022-11-14T19:04:23.494Z,10.95
2022-11-14T19:07:38.156Z,12.30
2022-11-14T19:10:39.864Z,11.35
2022-11-14T19:13:39.567Z,10.52
2022-11-14T19:16:31.674Z,10.77
2022-11-14T19:19:18.514Z,11.73
2022-11-14T19:22:06.254Z,10.48
2022-11-14T19:24:54.452Z,12.48
2022-11-14T19:27:44.648Z,10.48
2022-11-14T19:30:33.511Z,10.90
2022-11-14T19:33:30.340Z,9.15
2022-11-14T19:36:32.570Z,9.20
2022-11-14T19:39:26.145Z,9.50
2022-11-14T19:42:14.280Z,9.60
2022-11-14T19:45:01.602Z,10.52
2022-11-14T19:47:53.857Z,10.68
2022-11-14T19:50:40.589Z,11.75
2022-11-14T19:53:47.525Z,10.98
2022-11-14T19:56:35.466Z,10.25
2022-11-14T19:59:24.796Z,11.90
2022-11-14T20:02:16.025Z,10.98
2022-11-14T20:05:08.282Z,10.73
2022-11-14T20:07:56.162Z,11.52
2022-11-14T20:10:48.502Z,10.88
2022-11-14T20:13:37.385Z,11.98
2022-11-14T20:16:41.174Z,14.27
2022-11-14T20:19:38.011Z,11.00
2022-11-14T20:22:53.548Z,11.63
2022-11-14T20:25:51.647Z,11.82
2022-11-14T20:29:01.832Z,12.18
2022-11-14T20:32:15.631Z,12.35
2022-11-14T20:35:20.044Z,8.63
2022-11-14T20:38:19.688Z,10.43
2022-11-14T20:41:07.978Z,10.95
2022-11-14T20:43:58.855Z,10.10
2022-11-14T20:46:46.218Z,10.40
2022-11-14T20:49:33.627Z,11.57
2022-11-14T20:52:22.131Z,10.20
2022-11-14T20:55:11.902Z,10.77
2022-11-14T20:57:58.944Z,9.65
2022-11-14T21:00:46.068Z,11.05
2022-11-14T21:03:42.260Z,11.20
2022-11-14T21:06:35.740Z,11.27
2022-11-14T21:09:36.302Z,10.02
2022-11-14T21:12:45.685Z,10.13
2022-11-14T21:15:48.478Z,12.02
2022-11-14T21:18:45.135Z,11.02
2022-11-14T21:21:52.852Z,10.32
2022-11-14T21:24:50.881Z,9.98
2022-11-14T21:27:57.379Z,9.85
2022-11-14T21:31:03.608Z,10.07
2022-11-14T21:34:04.963Z,10.73
2022-11-14T21:36:58.965Z,9.43
2022-11-14T21:39:48.164Z,9.93
2022-11-14T21:42:41.924Z,9.80
2022-11-14T21:45:28.792Z,9.75
2022-11-14T21:48:16.210Z,9.75
2022-11-14T21:51:05.247Z,9.52
2022-11-14T21:53:54.996Z,11.20
2022-11-14T21:56:42.167Z,9.52
2022-11-14T21:59:31.490Z,9.85
2022-11-14T22:02:55.193Z,8.90
2022-11-14T22:05:58.941Z,8.95
2022-11-14T22:08:46.447Z,9.23
2022-11-14T22:11:35.386Z,9.52
2022-11-14T22:14:22.216Z,8.60
2022-11-14T22:17:09.506Z,9.75
2022-11-14T22:19:58.331Z,8.38
2022-11-14T22:22:47.604Z,8.85
2022-11-14T22:25:35.648Z,9.20
2022-11-14T22:28:22.732Z,9.07
2022-11-14T22:31:15.119Z,9.02
2022-11-14T22:34:02.153Z,8.73
2022-11-14T22:36:49.079Z,9.55
2022-11-14T22:39:36.391Z,9.48
2022-11-14T22:42:23.958Z,8.27
2022-11-14T22:45:11.312Z,9.35
2022-11-14T22:48:17.390Z,9.30
2022-11-14T22:51:17.577Z,9.20
2022-11-14T22:54:10.230Z,9.90
2022-11-14T22:57:01.141Z,8.70
2022-11-14T22:59:48.907Z,9.25
2022-11-14T23:02:55.251Z,8.43
2022-11-14T23:05:42.455Z,8.77
2022-11-14T23:08:31.127Z,9.10
2022-11-14T23:11:37.128Z,8.25
2022-11-14T23:14:43.387Z,7.05
2022-11-14T23:17:49.759Z,8.70
2022-11-14T23:20:55.938Z,9.10
2022-11-14T23:23:55.995Z,8.85
2022-11-14T23:26:47.186Z,6.90
2022-11-14T23:29:42.590Z,7.68
2022-11-14T23:32:39.782Z,7.70
2022-11-14T23:35:43.333Z,7.65
2022-11-14T23:38:49.587Z,8.13
2022-11-14T23:41:55.824Z,7.95
2022-11-14T23:45:01.853Z,7.90
2022-11-14T23:48:07.972Z,7.65
2022-11-14T23:51:09.593Z,7.32
2022-11-14T23:54:08.001Z,7.65
2022-11-14T23:57:14.151Z,8.77
